LCLK/LCA METAR and TAF weather

Enter ICAO airport designator
Station Type Date Time Source
LCLK METAR 2021/07/26 12:00 UTC NOAA

LCLK 261200Z 20015KT 9999 FEW030 36/19 Q1008 NOSIG


Station Type Date Time Source
LCLK Decoded METAR 2021/07/26 12:00 UTC NOAA

Larnaca Airport, Cyprus (LCLK) 34-53N 033-38E 2M
Jul 26, 2021 - 08:00 AM EDT / 2021.07.26 1200 UTC
Wind: from the SSW (200 degrees) at 17 MPH (15 KT):0
Visibility: greater than 7 mile(s):0
Sky conditions: mostly clear
Temperature: 96 F (36 C)
Heat index: 98.6 F (37.0 C):1
Dew Point: 66 F (19 C)
Relative Humidity: 36%
Pressure (altimeter): 29.77 in. Hg (1008 hPa)
ob: LCLK 261200Z 20015KT 9999 FEW030 36/19 Q1008 NOSIG
cycle: 12

Station Type Date Time Source
LCLK TAF 2021/07/26 12:33 UTC NOAA

TAF TAF LCLK 261130Z 2612/2712 21015KT 9999 FEW030
BECMG 2616/2619 31008KT
BECMG 2708/2710 18013KT

Example: see airport list